createdAt,value
2019-04-26T00:01:11.809Z,167199.00
2019-04-26T00:03:44.821Z,167170.88
2019-04-26T00:06:14.621Z,167142.69
2019-04-26T00:08:46.252Z,167142.69
2019-04-26T00:11:40.477Z,167121.28
2019-04-26T00:14:40.340Z,167113.22
2019-04-26T00:17:15.721Z,167087.80
2019-04-26T00:19:44.272Z,167058.33
2019-04-26T00:22:13.551Z,167051.61
2019-04-26T00:24:42.324Z,167027.50
2019-04-26T00:27:11.359Z,167022.13
2019-04-26T00:29:39.652Z,167015.47
2019-04-26T00:32:08.093Z,167008.75
2019-04-26T00:34:37.015Z,166979.28
2019-04-26T00:37:06.346Z,166981.98
2019-04-26T00:39:34.516Z,166967.25
2019-04-26T00:42:02.908Z,166953.81
2019-04-26T00:44:31.704Z,166921.66
2019-04-26T00:47:02.282Z,166933.72
2019-04-26T00:49:43.096Z,166948.52
2019-04-26T00:52:03.865Z,166941.75
2019-04-26T00:54:33.212Z,166957.88
2019-04-26T00:57:02.209Z,166919.00
2019-04-26T00:59:31.625Z,166917.64
2019-04-26T01:02:07.291Z,166896.20
2019-04-26T01:04:35.770Z,166917.64
2019-04-26T01:07:04.760Z,166937.73
2019-04-26T01:09:33.436Z,166901.56
2019-04-26T01:12:01.876Z,166921.66
2019-04-26T01:14:30.150Z,166905.56
2019-04-26T01:16:58.904Z,166933.72
2019-04-26T01:19:30.355Z,166919.00
2019-04-26T01:22:07.857Z,166932.38
2019-04-26T01:24:39.594Z,166901.56
2019-04-26T01:27:10.976Z,166909.63
2019-04-26T01:29:42.262Z,166917.64
2019-04-26T01:32:12.574Z,166924.36
2019-04-26T01:34:42.919Z,166906.92
2019-04-26T01:37:12.047Z,166890.84
2019-04-26T01:39:48.507Z,166882.81
2019-04-26T01:42:42.898Z,166888.19
2019-04-26T01:45:20.298Z,166898.91
2019-04-26T01:47:54.384Z,166822.59
2019-04-26T01:50:27.393Z,166888.19
2019-04-26T01:52:57.453Z,166893.53
2019-04-26T01:55:29.646Z,166869.44
2019-04-26T01:58:03.594Z,166852.06
2019-04-26T02:00:41.710Z,166886.83
2019-04-26T02:03:17.049Z,166872.09
2019-04-26T02:05:45.578Z,166872.09
2019-04-26T02:08:13.980Z,166876.16
2019-04-26T02:10:42.175Z,166848.00
2019-04-26T02:13:10.512Z,166872.09
2019-04-26T02:15:39.417Z,166869.44
2019-04-26T02:18:07.692Z,166885.53
2019-04-26T02:21:36.159Z,166904.27
2019-04-26T02:24:15.871Z,166872.09
2019-04-26T02:26:48.208Z,166791.78
2019-04-26T02:29:26.627Z,166837.33
2019-04-26T02:32:02.127Z,166803.86
2019-04-26T02:34:35.433Z,166850.70
2019-04-26T02:37:09.417Z,166853.36
2019-04-26T02:39:40.371Z,166856.06
2019-04-26T02:42:45.514Z,166830.61
2019-04-26T02:46:02.349Z,166795.80
2019-04-26T02:49:28.570Z,166802.50
2019-04-26T02:52:27.925Z,166829.25
2019-04-26T02:55:27.905Z,166811.88
2019-04-26T02:57:57.877Z,166773.06
2019-04-26T03:00:26.386Z,166766.34
2019-04-26T03:03:05.491Z,166795.80
2019-04-26T03:05:39.916Z,166789.12
2019-04-26T03:08:21.678Z,166724.88
2019-04-26T03:10:59.380Z,166731.53
2019-04-26T03:13:58.736Z,166748.97
2019-04-26T03:17:01.374Z,166722.16
2019-04-26T03:19:54.885Z,166746.25
2019-04-26T03:22:49.431Z,166724.88
2019-04-26T03:25:38.814Z,166704.78
2019-04-26T03:28:36.785Z,166735.59
2019-04-26T03:31:41.106Z,166716.84
2019-04-26T03:34:43.430Z,166732.87
2019-04-26T03:37:40.450Z,166702.13
2019-04-26T03:40:39.017Z,166715.50
2019-04-26T03:43:36.982Z,166686.05
2019-04-26T03:46:28.310Z,166676.69
2019-04-26T03:49:49.510Z,166636.53
2019-04-26T03:52:44.106Z,166628.52
2019-04-26T03:56:19.610Z,166591.02
2019-04-26T03:59:29.398Z,166589.66
2019-04-26T04:02:23.043Z,166569.58
2019-04-26T04:05:11.125Z,166552.20
2019-04-26T04:07:45.992Z,166550.84
2019-04-26T04:10:20.913Z,166532.13
2019-04-26T04:13:42.954Z,166528.13
2019-04-26T04:16:49.535Z,166521.42
2019-04-26T04:19:37.252Z,166517.41
2019-04-26T04:22:12.294Z,166489.33
2019-04-26T04:24:53.078Z,166486.63
2019-04-26T04:27:49.381Z,166498.69
2019-04-26T04:30:56.382Z,166510.70
2019-04-26T04:34:05.747Z,166499.98
2019-04-26T04:36:49.396Z,166501.34
2019-04-26T04:40:08.731Z,166495.98
2019-04-26T04:43:16.099Z,166470.61
2019-04-26T04:46:16.242Z,166443.83
2019-04-26T04:49:24.043Z,166422.45
2019-04-26T04:52:31.120Z,166438.47
2019-04-26T04:55:13.275Z,166455.89
2019-04-26T04:58:19.242Z,166433.12
2019-04-26T05:02:06.808Z,166458.55
2019-04-26T05:05:15.065Z,166485.33
2019-04-26T05:08:11.926Z,166530.78
2019-04-26T05:11:07.313Z,166521.42
2019-04-26T05:13:47.845Z,166529.42
2019-04-26T05:17:04.754Z,166573.59
2019-04-26T05:20:18.185Z,166617.80
2019-04-26T05:23:33.022Z,166632.52
2019-04-26T05:27:10.802Z,166727.53
2019-04-26T05:30:27.579Z,166777.06
2019-04-26T05:33:50.346Z,166916.28
2019-04-26T05:36:47.484Z,167023.48
2019-04-26T05:39:23.260Z,166944.41
2019-04-26T05:42:56.164Z,166980.63
2019-04-26T05:47:12.617Z,166917.64
2019-04-26T05:50:37.617Z,166827.95
2019-04-26T05:54:16.238Z,166762.33
2019-04-26T05:57:32.016Z,166783.78
2019-04-26T06:00:38.310Z,166803.86
2019-04-26T06:04:13.328Z,166787.78
2019-04-26T06:07:02.665Z,166819.89
2019-04-26T06:10:12.640Z,166849.34
2019-04-26T06:13:34.639Z,166829.25
2019-04-26T06:16:35.893Z,166858.72
2019-04-26T06:19:51.818Z,166888.19
2019-04-26T06:22:57.718Z,166811.88
2019-04-26T06:25:57.136Z,166848.00
2019-04-26T06:28:53.701Z,166881.47
2019-04-26T06:31:40.783Z,166947.16
2019-04-26T06:34:22.029Z,166973.92
2019-04-26T06:37:31.959Z,167132.02
2019-04-26T06:40:14.887Z,167118.58
2019-04-26T06:43:06.370Z,167015.47
2019-04-26T06:46:19.201Z,167040.88
2019-04-26T06:49:32.478Z,167083.78
2019-04-26T06:52:10.359Z,167129.31
2019-04-26T06:55:40.805Z,167251.30
2019-04-26T06:59:03.578Z,167304.91
2019-04-26T07:02:00.972Z,167379.95
2019-04-26T07:05:10.466Z,167193.63
2019-04-26T07:08:22.231Z,167196.28
2019-04-26T07:12:41.133Z,167245.88
2019-04-26T07:15:57.886Z,167142.69
2019-04-26T07:18:51.233Z,167157.44
2019-04-26T07:21:45.090Z,167225.78
2019-04-26T07:25:17.951Z,167394.69
2019-04-26T07:28:45.830Z,167424.19
2019-04-26T07:31:45.188Z,167333.05
2019-04-26T07:35:21.123Z,167471.09
2019-04-26T07:39:10.749Z,167518.06
2019-04-26T07:42:03.225Z,167519.37
2019-04-26T07:45:33.024Z,167558.31
2019-04-26T07:49:04.250Z,167590.53
2019-04-26T07:52:13.137Z,167422.84
2019-04-26T07:55:29.799Z,167408.09
2019-04-26T07:59:04.139Z,167397.41
2019-04-26T08:02:25.188Z,167544.91
2019-04-26T08:05:09.409Z,167558.31
2019-04-26T08:07:44.690Z,167559.66
2019-04-26T08:10:18.427Z,167563.69
2019-04-26T08:12:58.381Z,167597.20
2019-04-26T08:15:59.713Z,167609.30
2019-04-26T08:18:39.585Z,167501.95
2019-04-26T08:21:32.871Z,167467.09
2019-04-26T08:24:22.387Z,167670.98
2019-04-26T08:27:18.844Z,167703.16
2019-04-26T08:29:44.003Z,167799.75
2019-04-26T08:32:22.097Z,167856.19
2019-04-26T08:35:08.177Z,167818.63
2019-04-26T08:37:48.678Z,167730.02
2019-04-26T08:40:28.277Z,167789.06
2019-04-26T08:43:05.852Z,167883.02
2019-04-26T08:46:01.675Z,168033.34
2019-04-26T08:48:27.631Z,168033.34
2019-04-26T08:50:59.634Z,168014.56
2019-04-26T08:53:31.163Z,167935.34
2019-04-26T08:56:04.942Z,167856.19
2019-04-26T08:58:38.635Z,167916.56
2019-04-26T09:01:28.796Z,167883.02
2019-04-26T09:04:23.439Z,167883.02
2019-04-26T09:07:13.834Z,167944.78
2019-04-26T09:09:57.017Z,167803.87
2019-04-26T09:12:23.645Z,167756.83
2019-04-26T09:14:55.388Z,167780.97
2019-04-26T09:17:23.841Z,167822.66
2019-04-26T09:19:51.957Z,167866.94
2019-04-26T09:22:38.074Z,167844.09
2019-04-26T09:25:15.611Z,167952.81
2019-04-26T09:28:07.151Z,168092.47
2019-04-26T09:30:53.813Z,168085.73
2019-04-26T09:33:31.666Z,168070.97
2019-04-26T09:35:58.075Z,168135.42
2019-04-26T09:38:28.202Z,168014.56
2019-04-26T09:40:57.287Z,167931.31
2019-04-26T09:43:38.742Z,167766.22
2019-04-26T09:46:25.085Z,167785.03
2019-04-26T09:49:11.652Z,167866.94
2019-04-26T09:51:40.554Z,167794.44
2019-04-26T09:54:08.756Z,167787.70
2019-04-26T09:56:37.220Z,167786.34
2019-04-26T09:59:06.694Z,167771.58
2019-04-26T10:01:35.050Z,167764.91
2019-04-26T10:04:03.409Z,167735.39
2019-04-26T10:06:31.886Z,167776.95
2019-04-26T10:09:00.308Z,167727.31
2019-04-26T10:11:35.049Z,167763.56
2019-04-26T10:14:13.135Z,167601.27
2019-04-26T10:16:59.004Z,167668.33
2019-04-26T10:19:49.712Z,167601.27
2019-04-26T10:22:19.697Z,167601.27
2019-04-26T10:24:47.802Z,167559.66
2019-04-26T10:27:16.075Z,167582.45
2019-04-26T10:29:44.578Z,167531.47
2019-04-26T10:32:13.044Z,167675.00
2019-04-26T10:34:47.396Z,167625.41
2019-04-26T10:37:14.785Z,167661.59
2019-04-26T10:39:43.306Z,167595.91
2019-04-26T10:42:11.526Z,167622.70
2019-04-26T10:44:40.995Z,167552.94
2019-04-26T10:47:09.469Z,167579.78
2019-04-26T10:49:43.063Z,167543.56
2019-04-26T10:52:36.296Z,167480.48
2019-04-26T10:55:25.536Z,167472.45
2019-04-26T10:57:56.627Z,167375.94
2019-04-26T11:00:31.695Z,167290.16
2019-04-26T11:03:03.980Z,167146.75
2019-04-26T11:05:30.264Z,167075.72
2019-04-26T11:07:59.046Z,167050.25
2019-04-26T11:10:28.296Z,167089.09
2019-04-26T11:12:56.423Z,167082.44
2019-04-26T11:15:24.664Z,167063.69
2019-04-26T11:17:53.401Z,167110.56
2019-04-26T11:20:23.453Z,167113.22
2019-04-26T11:22:51.708Z,167129.31
2019-04-26T11:25:20.097Z,167225.78
2019-04-26T11:27:48.665Z,167196.28
2019-04-26T11:30:20.969Z,167260.67
2019-04-26T11:32:47.326Z,167345.09
2019-04-26T11:35:15.530Z,167381.30
2019-04-26T11:37:46.215Z,167382.66
2019-04-26T11:40:14.513Z,167373.28
2019-04-26T11:42:45.615Z,167469.80
2019-04-26T11:45:17.583Z,167389.33
2019-04-26T11:47:55.825Z,167437.59
2019-04-26T11:50:17.822Z,167335.70
2019-04-26T11:52:46.092Z,167401.42
2019-04-26T11:55:15.071Z,167424.19
2019-04-26T11:57:47.021Z,167390.69
2019-04-26T12:00:23.457Z,167363.89
2019-04-26T12:02:52.277Z,167338.42
2019-04-26T12:05:36.764Z,167284.80
2019-04-26T12:08:07.696Z,167255.31
2019-04-26T12:10:35.909Z,167308.92
2019-04-26T12:13:05.785Z,167244.53
2019-04-26T12:15:34.451Z,167245.88
2019-04-26T12:18:05.494Z,167211.03
2019-04-26T12:20:33.169Z,167136.03
2019-04-26T12:23:01.684Z,167169.52
2019-04-26T12:25:31.130Z,167086.44
2019-04-26T12:28:02.067Z,166981.98
2019-04-26T12:30:29.724Z,167082.44
2019-04-26T12:32:57.922Z,167069.05
2019-04-26T12:35:26.122Z,167024.84
2019-04-26T12:37:55.715Z,167050.25
2019-04-26T12:40:24.738Z,166995.38
2019-04-26T12:42:53.197Z,167030.20
2019-04-26T12:45:51.392Z,166960.55
2019-04-26T12:48:21.679Z,166914.98
2019-04-26T12:50:49.793Z,166960.55
2019-04-26T12:53:18.322Z,166959.19
2019-04-26T12:55:49.191Z,166861.42
2019-04-26T12:58:16.681Z,166813.22
2019-04-26T13:00:53.749Z,166778.41
2019-04-26T13:03:20.370Z,166746.25
2019-04-26T13:05:45.559Z,166699.42
2019-04-26T13:08:17.003Z,166703.44
2019-04-26T13:11:15.062Z,166732.87
2019-04-26T13:13:44.357Z,166736.89
2019-04-26T13:16:44.623Z,166665.97
2019-04-26T13:19:16.069Z,166660.61
2019-04-26T13:21:43.421Z,166688.70
2019-04-26T13:24:11.702Z,166740.94
2019-04-26T13:26:39.955Z,166690.06
2019-04-26T13:29:08.514Z,166730.22
2019-04-26T13:31:37.261Z,166797.16
2019-04-26T13:34:05.468Z,166870.78
2019-04-26T13:36:33.662Z,166898.91
2019-04-26T13:39:01.939Z,166939.09
2019-04-26T13:41:30.269Z,167050.25
2019-04-26T13:44:01.227Z,167066.34
2019-04-26T13:46:57.209Z,167032.86
2019-04-26T13:49:48.278Z,166928.38
2019-04-26T13:52:16.664Z,166961.89
2019-04-26T13:54:45.184Z,166862.73
2019-04-26T13:57:13.596Z,166880.16
2019-04-26T13:59:42.050Z,166813.22
2019-04-26T14:02:11.691Z,166782.42
2019-04-26T14:04:42.659Z,166799.81
2019-04-26T14:07:10.994Z,166743.59
2019-04-26T14:09:39.158Z,166748.97
2019-04-26T14:12:18.342Z,166703.44
2019-04-26T14:14:37.977Z,166730.22
2019-04-26T14:17:06.306Z,166747.61
2019-04-26T14:19:34.470Z,166735.59
2019-04-26T14:22:06.706Z,166688.70
2019-04-26T14:24:41.502Z,166694.06
2019-04-26T14:27:16.674Z,166682.05
2019-04-26T14:29:44.981Z,166724.88
2019-04-26T14:32:13.125Z,166671.33
2019-04-26T14:34:41.988Z,166692.77
2019-04-26T14:37:15.460Z,166710.14
2019-04-26T14:39:50.129Z,166692.77
2019-04-26T14:42:12.817Z,166640.53
2019-04-26T14:44:49.216Z,166682.05
2019-04-26T14:47:14.727Z,166675.33
2019-04-26T14:49:43.138Z,166652.59
2019-04-26T14:52:11.377Z,166627.16
2019-04-26T14:54:41.463Z,166611.03
2019-04-26T14:57:15.602Z,166604.37
2019-04-26T14:59:56.951Z,166540.14
2019-04-26T15:02:56.375Z,166556.22
2019-04-26T15:05:44.685Z,166549.50
2019-04-26T15:08:11.114Z,166517.41
2019-04-26T15:10:45.674Z,166569.58
2019-04-26T15:13:17.891Z,166558.86
2019-04-26T15:15:39.649Z,166591.02
2019-04-26T15:18:07.767Z,166566.92
2019-04-26T15:20:35.888Z,166566.92
2019-04-26T15:23:04.575Z,166577.59
2019-04-26T15:25:33.688Z,166450.53
2019-04-26T15:28:02.476Z,166490.62
2019-04-26T15:30:34.278Z,166505.34
2019-04-26T15:33:03.040Z,166508.05
2019-04-26T15:35:32.705Z,166509.41
2019-04-26T15:38:01.519Z,166477.27
2019-04-26T15:40:56.926Z,166410.39
2019-04-26T15:43:29.546Z,166469.25
2019-04-26T15:46:29.512Z,166524.06
2019-04-26T15:49:22.473Z,166525.42
2019-04-26T15:51:52.015Z,166483.97
2019-04-26T15:54:21.659Z,166490.62
2019-04-26T15:56:53.807Z,166545.50
2019-04-26T15:59:22.733Z,166526.77
2019-04-26T16:01:52.094Z,166518.77
2019-04-26T16:04:22.252Z,166354.25
2019-04-26T16:06:52.234Z,166382.31
2019-04-26T16:09:22.950Z,166465.25
2019-04-26T16:11:53.169Z,166487.97
2019-04-26T16:14:24.853Z,166446.53
2019-04-26T16:16:52.468Z,166521.42
2019-04-26T16:19:20.832Z,166491.98
2019-04-26T16:21:52.810Z,166518.77
2019-04-26T16:24:19.142Z,166566.92
2019-04-26T16:26:53.557Z,166586.95
2019-04-26T16:29:43.231Z,166474.61
2019-04-26T16:32:29.944Z,166562.88
2019-04-26T16:34:58.162Z,166395.67
2019-04-26T16:37:26.937Z,166482.63
2019-04-26T16:39:55.157Z,166541.48
2019-04-26T16:42:23.673Z,166505.34
2019-04-26T16:44:53.134Z,166433.12
2019-04-26T16:47:23.400Z,166532.13
2019-04-26T16:49:52.356Z,166574.94
2019-04-26T16:52:21.066Z,166586.95
2019-04-26T16:54:49.334Z,166659.25
2019-04-26T16:57:17.477Z,166696.78
2019-04-26T16:59:50.956Z,166736.89
2019-04-26T17:02:20.965Z,166743.59
2019-04-26T17:04:45.894Z,166664.63
2019-04-26T17:07:21.800Z,166513.41
2019-04-26T17:09:57.664Z,166474.61
2019-04-26T17:12:14.905Z,166493.33
2019-04-26T17:14:47.727Z,166600.38
2019-04-26T17:17:14.475Z,166633.88
2019-04-26T17:19:43.328Z,166497.34
2019-04-26T17:22:41.807Z,166616.44
2019-04-26T17:25:06.454Z,166665.97
2019-04-26T17:27:34.841Z,166645.89
2019-04-26T17:30:05.788Z,166557.56
2019-04-26T17:32:35.090Z,166633.88
2019-04-26T17:35:07.472Z,166648.59
2019-04-26T17:37:35.218Z,166620.50
2019-04-26T17:40:11.256Z,166647.23
2019-04-26T17:42:40.785Z,166644.59
2019-04-26T17:45:10.917Z,166640.53
2019-04-26T17:47:40.738Z,166639.23
2019-04-26T17:50:10.972Z,166620.50
2019-04-26T17:52:40.835Z,166607.03
2019-04-26T17:55:11.958Z,166578.94
2019-04-26T17:57:43.538Z,166613.73
2019-04-26T18:00:15.376Z,166599.02
2019-04-26T18:02:47.924Z,166609.73
2019-04-26T18:05:14.249Z,166607.03
2019-04-26T18:07:50.274Z,166616.44
2019-04-26T18:10:12.733Z,166612.38
2019-04-26T18:12:42.823Z,166584.30
2019-04-26T18:15:16.621Z,166463.91
2019-04-26T18:18:00.060Z,166437.17
2019-04-26T18:20:44.798Z,166524.06
2019-04-26T18:23:15.417Z,166525.42
2019-04-26T18:25:45.097Z,166521.42
2019-04-26T18:28:15.940Z,166502.69
2019-04-26T18:30:47.618Z,166532.13
2019-04-26T18:33:17.565Z,166524.06
2019-04-26T18:35:48.883Z,166529.42
2019-04-26T18:38:15.215Z,166486.63
2019-04-26T18:40:59.917Z,166505.34
2019-04-26T18:43:18.884Z,166510.70
2019-04-26T18:45:45.789Z,166504.05
2019-04-26T18:48:14.257Z,166486.63
2019-04-26T18:50:45.752Z,166485.33
2019-04-26T18:53:39.679Z,166470.61
2019-04-26T18:56:08.808Z,166470.61
2019-04-26T18:58:38.090Z,166469.25
2019-04-26T19:01:08.334Z,166457.19
2019-04-26T19:03:36.902Z,166457.19
2019-04-26T19:06:05.802Z,166446.53
2019-04-26T19:08:45.795Z,166454.53
2019-04-26T19:11:07.567Z,166450.53
2019-04-26T19:14:06.518Z,166419.75
2019-04-26T19:17:06.603Z,166419.75
2019-04-26T19:19:53.236Z,166425.11
2019-04-26T19:22:22.573Z,166407.75
2019-04-26T19:24:55.885Z,166421.11
2019-04-26T19:27:26.487Z,166454.53
2019-04-26T19:29:51.903Z,166459.91
2019-04-26T19:32:21.829Z,166435.81
2019-04-26T19:34:50.306Z,166466.55
2019-04-26T19:37:18.739Z,166478.63
2019-04-26T19:39:47.511Z,166473.25
2019-04-26T19:42:16.371Z,166459.91
2019-04-26T19:44:44.857Z,166478.63
2019-04-26T19:47:24.894Z,166466.55
2019-04-26T19:50:16.180Z,166401.03
2019-04-26T19:52:58.944Z,166386.31
2019-04-26T19:55:47.441Z,166334.19
2019-04-26T19:58:20.583Z,166330.17
2019-04-26T20:00:49.515Z,166299.41
2019-04-26T20:03:17.692Z,166310.11
2019-04-26T20:05:45.985Z,166334.19
2019-04-26T20:08:14.264Z,166387.67
2019-04-26T20:10:45.444Z,166387.67
2019-04-26T20:13:16.238Z,166380.97
2019-04-26T20:15:43.249Z,166342.19
2019-04-26T20:18:12.238Z,166342.19
2019-04-26T20:20:41.406Z,166364.91
2019-04-26T20:23:10.115Z,166388.97
2019-04-26T20:25:38.402Z,166370.25
2019-04-26T20:28:06.634Z,166350.23
2019-04-26T20:30:57.459Z,166267.33
2019-04-26T20:33:26.677Z,166290.05
2019-04-26T20:35:57.422Z,166330.17
2019-04-26T20:38:25.663Z,166315.47
2019-04-26T20:40:53.835Z,166308.75
2019-04-26T20:43:26.552Z,166306.11
2019-04-26T20:46:10.920Z,166342.19
2019-04-26T20:48:25.665Z,166269.98
2019-04-26T20:50:55.518Z,166256.62
2019-04-26T20:53:25.305Z,166252.63
2019-04-26T20:55:53.483Z,166248.63
2019-04-26T20:58:21.665Z,166237.86
2019-04-26T21:00:54.551Z,166237.86
2019-04-26T21:03:24.815Z,166256.62
2019-04-26T21:05:52.817Z,166263.33
2019-04-26T21:08:25.719Z,166237.86
2019-04-26T21:10:52.073Z,166260.63
2019-04-26T21:13:27.152Z,166248.63
2019-04-26T21:15:57.883Z,166227.16
2019-04-26T21:18:21.182Z,166216.45
2019-04-26T21:20:52.129Z,166224.50
2019-04-26T21:23:22.246Z,166203.09
2019-04-26T21:26:12.393Z,166244.52
2019-04-26T21:29:07.071Z,166256.62
2019-04-26T21:32:03.645Z,166244.52
2019-04-26T21:34:34.785Z,166215.16
2019-04-26T21:37:17.295Z,166205.73
2019-04-26T21:40:09.101Z,166179.03
2019-04-26T21:42:37.293Z,166145.63
2019-04-26T21:45:06.286Z,166179.03
2019-04-26T21:47:35.491Z,166165.69
2019-04-26T21:50:05.717Z,166162.97
2019-04-26T21:52:34.358Z,166133.56
2019-04-26T21:55:04.629Z,166158.97
2019-04-26T21:57:34.870Z,166141.62
2019-04-26T22:00:08.454Z,166138.92
2019-04-26T22:02:37.562Z,166148.27
2019-04-26T22:05:07.962Z,166128.27
2019-04-26T22:07:39.532Z,166080.16
2019-04-26T22:10:16.045Z,166076.11
2019-04-26T22:12:45.094Z,166074.81
2019-04-26T22:15:29.459Z,166088.16
2019-04-26T22:18:03.198Z,166092.16
2019-04-26T22:20:39.656Z,166100.16
2019-04-26T22:23:33.254Z,166096.16
2019-04-26T22:26:05.001Z,166096.16
2019-04-26T22:28:36.078Z,166086.81
2019-04-26T22:31:06.972Z,166089.50
2019-04-26T22:33:34.202Z,166093.50
2019-04-26T22:36:03.949Z,166085.45
2019-04-26T22:38:33.955Z,166106.86
2019-04-26T22:41:03.060Z,166108.20
2019-04-26T22:43:54.032Z,166077.45
2019-04-26T22:46:47.244Z,166053.41
2019-04-26T22:49:10.839Z,166029.34
2019-04-26T22:51:39.067Z,166034.70
2019-04-26T22:54:07.260Z,166016.00
2019-04-26T22:56:37.094Z,165990.59
2019-04-26T22:59:08.014Z,166052.05
2019-04-26T23:01:39.220Z,165981.25
2019-04-26T23:04:06.188Z,165998.59
2019-04-26T23:06:34.322Z,166005.30
2019-04-26T23:09:02.933Z,166008.00
2019-04-26T23:11:31.296Z,165979.91
2019-04-26T23:14:28.360Z,166017.34
2019-04-26T23:17:34.744Z,166040.05
2019-04-26T23:20:13.680Z,166016.00
2019-04-26T23:22:42.719Z,166021.34
2019-04-26T23:25:11.389Z,166026.70
2019-04-26T23:27:40.132Z,165999.94
2019-04-26T23:30:09.691Z,166002.66
2019-04-26T23:32:37.920Z,165977.25
2019-04-26T23:35:06.607Z,165957.20
2019-04-26T23:37:34.841Z,165961.20
2019-04-26T23:40:04.013Z,166002.66
2019-04-26T23:42:33.097Z,165962.56
2019-04-26T23:45:04.711Z,165946.50
2019-04-26T23:47:37.443Z,165943.86
2019-04-26T23:50:04.102Z,165919.81
2019-04-26T23:52:33.244Z,165927.81
2019-04-26T23:55:07.278Z,165906.47
2019-04-26T23:57:36.075Z,165914.45
